createdAt,value
2018-09-16T00:01:57.318Z,11.10
2018-09-16T00:04:24.747Z,11.10
2018-09-16T00:06:52.150Z,11.10
2018-09-16T00:09:19.634Z,11.10
2018-09-16T00:11:47.058Z,11.10
2018-09-16T00:14:14.448Z,11.10
2018-09-16T00:16:41.782Z,11.00
2018-09-16T00:19:09.129Z,11.00
2018-09-16T00:21:36.753Z,11.00
2018-09-16T00:24:04.096Z,11.00
2018-09-16T00:26:31.585Z,11.00
2018-09-16T00:28:59.026Z,11.10
2018-09-16T00:31:26.581Z,11.00
2018-09-16T00:33:53.923Z,11.00
2018-09-16T00:36:21.269Z,10.90
2018-09-16T00:38:48.657Z,10.90
2018-09-16T00:41:16.058Z,10.80
2018-09-16T00:43:43.399Z,10.50
2018-09-16T00:46:10.891Z,10.50
2018-09-16T00:48:38.339Z,10.50
2018-09-16T00:51:05.427Z,10.40
2018-09-16T00:53:32.801Z,10.50
2018-09-16T00:56:00.273Z,10.60
2018-09-16T00:58:27.717Z,10.50
2018-09-16T01:00:57.117Z,10.60
2018-09-16T01:03:24.772Z,10.70
2018-09-16T01:05:58.010Z,10.60
2018-09-16T01:08:25.897Z,10.50
2018-09-16T01:10:53.635Z,10.50
2018-09-16T01:13:21.246Z,10.50
2018-09-16T01:15:48.733Z,10.50
2018-09-16T01:18:16.127Z,10.50
2018-09-16T01:20:43.543Z,10.40
2018-09-16T01:23:10.926Z,10.30
2018-09-16T01:25:38.448Z,10.30
2018-09-16T01:28:05.880Z,10.30
2018-09-16T01:30:33.391Z,10.20
2018-09-16T01:33:00.748Z,10.20
2018-09-16T01:35:28.272Z,10.20
2018-09-16T01:38:01.457Z,10.10
2018-09-16T01:40:28.774Z,10.10
2018-09-16T01:42:56.098Z,10.10
2018-09-16T01:45:23.578Z,10.20
2018-09-16T01:47:50.982Z,10.20
2018-09-16T01:50:18.507Z,10.10
2018-09-16T01:52:45.935Z,10.10
2018-09-16T01:55:13.357Z,10.10
2018-09-16T01:57:40.692Z,10.10
2018-09-16T02:00:08.078Z,10.10
2018-09-16T02:02:35.520Z,10.00
2018-09-16T02:05:02.898Z,10.10
2018-09-16T02:07:30.270Z,9.90
2018-09-16T02:09:57.598Z,9.90
2018-09-16T02:12:24.944Z,9.90
2018-09-16T02:14:52.255Z,9.90
2018-09-16T02:17:19.596Z,9.90
2018-09-16T02:19:47.044Z,10.00
2018-09-16T02:22:14.442Z,9.90
2018-09-16T02:24:41.856Z,9.90
2018-09-16T02:27:09.253Z,9.90
2018-09-16T02:29:36.602Z,9.80
2018-09-16T02:32:04.096Z,9.70
2018-09-16T02:34:31.580Z,9.60
2018-09-16T02:36:58.918Z,9.70
2018-09-16T02:39:26.346Z,9.60
2018-09-16T02:41:53.797Z,9.50
2018-09-16T02:44:21.192Z,9.50
2018-09-16T02:46:48.638Z,9.60
2018-09-16T02:49:15.933Z,9.60
2018-09-16T02:51:43.302Z,9.60
2018-09-16T02:54:10.789Z,9.60
2018-09-16T02:56:38.114Z,9.70
2018-09-16T02:59:05.570Z,9.60
2018-09-16T03:01:32.953Z,9.50
2018-09-16T03:04:00.298Z,9.50
2018-09-16T03:06:30.604Z,9.50
2018-09-16T03:08:58.351Z,9.50
2018-09-16T03:11:25.810Z,9.50
2018-09-16T03:13:53.209Z,9.50
2018-09-16T03:16:20.557Z,9.40
2018-09-16T03:18:48.085Z,9.30
2018-09-16T03:21:15.353Z,9.20
2018-09-16T03:23:42.838Z,9.30
2018-09-16T03:26:10.363Z,9.20
2018-09-16T03:28:37.777Z,9.20
2018-09-16T03:31:05.153Z,8.90
2018-09-16T03:33:32.526Z,8.70
2018-09-16T03:35:59.993Z,8.70
2018-09-16T03:38:27.385Z,8.50
2018-09-16T03:40:54.781Z,8.40
2018-09-16T03:43:22.511Z,8.50
2018-09-16T03:45:50.259Z,8.60
2018-09-16T03:48:17.589Z,8.70
2018-09-16T03:50:45.088Z,8.70
2018-09-16T03:53:12.436Z,8.70
2018-09-16T03:55:39.885Z,8.60
2018-09-16T03:58:07.277Z,8.60
2018-09-16T04:00:34.655Z,8.50
2018-09-16T04:03:02.109Z,8.40
2018-09-16T04:05:29.533Z,8.40
2018-09-16T04:07:57.037Z,8.60
2018-09-16T04:10:24.504Z,8.80
2018-09-16T04:12:51.920Z,8.90
2018-09-16T04:15:19.609Z,8.90
2018-09-16T04:17:46.938Z,8.90
2018-09-16T04:20:14.385Z,8.90
2018-09-16T04:22:41.763Z,8.80
2018-09-16T04:25:09.156Z,8.70
2018-09-16T04:27:36.591Z,8.60
2018-09-16T04:30:04.643Z,8.50
2018-09-16T04:32:32.165Z,8.50
2018-09-16T04:34:59.512Z,8.40
2018-09-16T04:37:26.874Z,8.50
2018-09-16T04:39:54.310Z,8.40
2018-09-16T04:42:21.641Z,8.30
2018-09-16T04:44:49.045Z,8.20
2018-09-16T04:47:16.494Z,8.30
2018-09-16T04:49:43.859Z,8.30
2018-09-16T04:52:11.230Z,8.20
2018-09-16T04:54:38.596Z,8.20
2018-09-16T04:57:06.034Z,8.20
2018-09-16T04:59:33.556Z,8.30
2018-09-16T05:02:00.948Z,8.20
2018-09-16T05:04:28.417Z,8.20
2018-09-16T05:06:55.806Z,8.20
2018-09-16T05:09:23.257Z,8.10
2018-09-16T05:11:50.651Z,8.10
2018-09-16T05:14:18.050Z,7.90
2018-09-16T05:16:45.475Z,7.90
2018-09-16T05:19:12.877Z,7.80
2018-09-16T05:21:40.266Z,7.90
2018-09-16T05:24:07.585Z,7.80
2018-09-16T05:26:34.954Z,8.00
2018-09-16T05:29:02.408Z,8.00
2018-09-16T05:31:30.089Z,8.20
2018-09-16T05:33:59.438Z,8.30
2018-09-16T05:36:27.152Z,8.40
2018-09-16T05:38:54.580Z,8.50
2018-09-16T05:41:22.409Z,8.60
2018-09-16T05:43:49.870Z,8.60
2018-09-16T05:46:17.393Z,8.80
2018-09-16T05:48:44.754Z,8.90
2018-09-16T05:51:12.157Z,9.00
2018-09-16T05:53:39.588Z,9.00
2018-09-16T05:56:06.893Z,9.00
2018-09-16T05:58:34.329Z,9.10
2018-09-16T06:01:01.775Z,9.20
2018-09-16T06:03:29.170Z,9.20
2018-09-16T06:05:56.510Z,9.20
2018-09-16T06:08:23.925Z,9.20
2018-09-16T06:10:51.394Z,9.10
2018-09-16T06:13:18.761Z,9.20
2018-09-16T06:15:46.171Z,9.10
2018-09-16T06:18:13.669Z,9.20
2018-09-16T06:20:40.995Z,9.40
2018-09-16T06:23:08.357Z,9.60
2018-09-16T06:25:35.788Z,9.80
2018-09-16T06:28:03.170Z,10.00
2018-09-16T06:30:30.555Z,10.20
2018-09-16T06:32:58.005Z,10.30
2018-09-16T06:35:25.525Z,10.50
2018-09-16T06:37:52.956Z,10.70
2018-09-16T06:40:20.417Z,10.70
2018-09-16T06:42:48.089Z,10.90
2018-09-16T06:45:15.529Z,11.10
2018-09-16T06:47:43.001Z,11.00
2018-09-16T06:50:10.461Z,11.10
2018-09-16T06:52:37.849Z,11.30
2018-09-16T06:55:05.655Z,11.50
2018-09-16T06:57:32.979Z,11.80
2018-09-16T07:00:00.251Z,11.80
2018-09-16T07:02:27.645Z,11.90
2018-09-16T07:04:55.029Z,12.00
2018-09-16T07:07:22.461Z,12.00
2018-09-16T07:09:49.916Z,12.20
2018-09-16T07:12:17.354Z,12.10
2018-09-16T07:14:44.795Z,12.20
2018-09-16T07:17:12.305Z,12.30
2018-09-16T07:19:39.723Z,12.60
2018-09-16T07:22:07.229Z,12.80
2018-09-16T07:24:34.643Z,13.00
2018-09-16T07:27:02.095Z,13.10
2018-09-16T07:29:29.459Z,13.20
2018-09-16T07:31:56.908Z,13.40
2018-09-16T07:34:24.289Z,13.50
2018-09-16T07:36:51.745Z,13.60
2018-09-16T07:39:19.096Z,13.90
2018-09-16T07:41:46.415Z,14.10
2018-09-16T07:44:13.953Z,14.20
2018-09-16T07:46:41.400Z,14.40
2018-09-16T07:49:08.874Z,14.40
2018-09-16T07:51:36.383Z,14.70
2018-09-16T07:54:03.825Z,15.10
2018-09-16T07:56:31.190Z,15.30
2018-09-16T07:58:58.637Z,15.50
2018-09-16T08:01:26.157Z,15.60
2018-09-16T08:03:53.607Z,15.80
2018-09-16T08:08:29.418Z,16.00
2018-09-16T08:10:56.771Z,16.20
2018-09-16T08:13:24.271Z,16.50
2018-09-16T08:15:51.713Z,16.60
2018-09-16T08:18:19.196Z,16.90
2018-09-16T08:20:46.693Z,17.00
2018-09-16T08:23:14.062Z,17.10
2018-09-16T08:25:41.544Z,17.20
2018-09-16T08:28:08.947Z,17.30
2018-09-16T08:30:36.421Z,17.30
2018-09-16T08:33:03.908Z,17.50
2018-09-16T08:35:31.318Z,17.90
2018-09-16T08:37:58.838Z,18.10
2018-09-16T08:40:26.258Z,18.20
2018-09-16T08:42:53.718Z,18.30
2018-09-16T08:45:21.153Z,18.40
2018-09-16T08:47:48.560Z,18.80
2018-09-16T08:50:15.940Z,18.90
2018-09-16T08:52:43.372Z,19.10
2018-09-16T08:55:10.750Z,18.90
2018-09-16T08:57:38.094Z,18.90
2018-09-16T09:00:06.710Z,19.20
2018-09-16T09:02:34.200Z,19.30
2018-09-16T09:05:01.499Z,19.50
2018-09-16T09:07:28.909Z,19.70
2018-09-16T09:09:57.677Z,19.90
2018-09-16T09:12:25.068Z,20.20
2018-09-16T09:14:52.644Z,20.30
2018-09-16T09:17:20.382Z,20.10
2018-09-16T09:19:47.777Z,20.40
2018-09-16T09:22:15.294Z,20.40
2018-09-16T09:24:43.005Z,20.60
2018-09-16T09:27:10.721Z,20.70
2018-09-16T09:29:38.149Z,20.90
2018-09-16T09:32:05.606Z,20.80
2018-09-16T09:34:33.090Z,20.80
2018-09-16T09:37:00.505Z,21.10
2018-09-16T09:39:27.893Z,21.50
2018-09-16T09:41:55.346Z,21.70
2018-09-16T09:44:22.841Z,22.10
2018-09-16T09:46:50.281Z,21.90
2018-09-16T09:49:17.687Z,21.60
2018-09-16T09:51:45.131Z,21.50
2018-09-16T09:54:12.657Z,21.50
2018-09-16T09:56:39.946Z,22.10
2018-09-16T09:59:07.551Z,22.50
2018-09-16T10:01:34.933Z,22.90
2018-09-16T10:04:02.380Z,22.70
2018-09-16T10:06:29.731Z,22.50
2018-09-16T10:08:57.115Z,22.20
2018-09-16T10:11:24.494Z,22.30
2018-09-16T10:13:51.961Z,22.30
2018-09-16T10:16:19.337Z,22.70
2018-09-16T10:18:46.964Z,23.00
2018-09-16T10:21:14.307Z,22.80
2018-09-16T10:23:42.184Z,22.80
2018-09-16T10:26:09.628Z,23.10
2018-09-16T10:28:37.035Z,23.40
2018-09-16T10:31:04.455Z,23.30
2018-09-16T10:33:31.750Z,23.40
2018-09-16T10:35:59.038Z,23.70
2018-09-16T10:38:26.474Z,23.60
2018-09-16T10:40:53.882Z,24.00
2018-09-16T10:43:21.344Z,24.20
2018-09-16T10:45:48.888Z,24.30
2018-09-16T10:48:16.406Z,24.50
2018-09-16T10:50:43.728Z,24.40
2018-09-16T10:53:11.134Z,24.00
2018-09-16T10:55:38.495Z,23.60
2018-09-16T10:58:05.949Z,23.50
2018-09-16T11:00:33.326Z,23.70
2018-09-16T11:03:00.755Z,23.90
2018-09-16T11:05:28.169Z,23.40
2018-09-16T11:07:55.759Z,23.60
2018-09-16T11:10:22.976Z,24.00
2018-09-16T11:12:50.312Z,24.50
2018-09-16T11:15:17.724Z,24.80
2018-09-16T11:17:45.202Z,24.90
2018-09-16T11:20:12.712Z,24.90
2018-09-16T11:22:40.032Z,24.70
2018-09-16T11:25:07.539Z,25.00
2018-09-16T11:27:34.848Z,25.30
2018-09-16T11:30:02.275Z,25.20
2018-09-16T11:32:29.741Z,25.20
2018-09-16T11:34:57.290Z,24.70
2018-09-16T11:37:24.772Z,24.20
2018-09-16T11:39:52.184Z,24.50
2018-09-16T11:42:19.590Z,24.80
2018-09-16T11:44:47.023Z,25.00
2018-09-16T11:47:14.364Z,25.40
2018-09-16T11:49:41.757Z,25.70
2018-09-16T11:52:09.284Z,25.60
2018-09-16T11:54:36.709Z,25.70
2018-09-16T11:57:04.145Z,25.90
2018-09-16T11:59:31.558Z,25.30
2018-09-16T12:01:58.911Z,25.20
2018-09-16T12:04:26.273Z,25.50
2018-09-16T12:06:53.713Z,25.90
2018-09-16T12:09:21.123Z,26.00
2018-09-16T12:11:48.511Z,25.90
2018-09-16T12:14:15.917Z,26.10
2018-09-16T12:16:43.388Z,25.20
2018-09-16T12:19:10.865Z,25.50
2018-09-16T12:21:38.221Z,25.70
2018-09-16T12:24:05.690Z,26.20
2018-09-16T12:26:33.052Z,26.40
2018-09-16T12:29:00.367Z,26.50
2018-09-16T12:31:27.823Z,26.80
2018-09-16T12:33:55.127Z,26.90
2018-09-16T12:36:22.540Z,26.80
2018-09-16T12:38:49.971Z,26.70
2018-09-16T12:41:17.309Z,26.60
2018-09-16T12:43:44.744Z,26.10
2018-09-16T12:46:12.111Z,26.40
2018-09-16T12:48:39.484Z,26.30
2018-09-16T12:51:06.883Z,26.50
2018-09-16T12:53:34.229Z,26.40
2018-09-16T12:56:01.591Z,26.50
2018-09-16T12:58:29.016Z,26.70
2018-09-16T13:00:56.471Z,26.40
2018-09-16T13:03:23.875Z,26.70
2018-09-16T13:05:51.235Z,26.90
2018-09-16T13:08:18.686Z,27.20
2018-09-16T13:10:46.111Z,27.10
2018-09-16T13:13:13.650Z,26.90
2018-09-16T13:15:41.135Z,27.20
2018-09-16T13:18:08.545Z,26.90
2018-09-16T13:20:35.949Z,26.60
2018-09-16T13:23:03.370Z,27.10
2018-09-16T13:25:30.789Z,27.20
2018-09-16T13:27:58.242Z,26.90
2018-09-16T13:30:25.623Z,26.70
2018-09-16T13:32:53.039Z,26.80
2018-09-16T13:35:20.474Z,26.80
2018-09-16T13:37:47.874Z,27.00
2018-09-16T13:40:15.386Z,27.10
2018-09-16T13:42:42.846Z,27.10
2018-09-16T13:45:10.361Z,26.50
2018-09-16T13:47:38.018Z,26.80
2018-09-16T13:50:05.926Z,27.10
2018-09-16T13:52:33.310Z,26.10
2018-09-16T13:55:00.648Z,26.10
2018-09-16T13:57:28.078Z,26.60
2018-09-16T13:59:55.560Z,26.80
2018-09-16T14:02:23.026Z,27.10
2018-09-16T14:04:50.338Z,27.00
2018-09-16T14:07:18.363Z,27.30
2018-09-16T14:09:45.789Z,27.40
2018-09-16T14:12:13.186Z,27.60
2018-09-16T14:14:40.584Z,27.70
2018-09-16T14:17:08.049Z,27.70
2018-09-16T14:19:35.506Z,27.70
2018-09-16T14:22:02.938Z,27.20
2018-09-16T14:24:30.421Z,26.40
2018-09-16T14:26:57.863Z,26.50
2018-09-16T14:29:25.190Z,26.80
2018-09-16T14:31:52.662Z,27.00
2018-09-16T14:34:20.211Z,27.60
2018-09-16T14:36:47.603Z,28.20
2018-09-16T14:39:14.997Z,27.50
2018-09-16T14:41:42.431Z,27.20
2018-09-16T14:44:09.890Z,28.30
2018-09-16T14:46:37.372Z,29.00
2018-09-16T14:49:04.794Z,28.90
2018-09-16T14:51:32.262Z,28.50
2018-09-16T14:53:59.610Z,28.20
2018-09-16T14:56:27.203Z,27.70
2018-09-16T14:58:54.591Z,27.20
2018-09-16T15:01:21.930Z,26.90
2018-09-16T15:03:49.388Z,26.70
2018-09-16T15:06:16.808Z,26.60
2018-09-16T15:08:44.306Z,26.40
2018-09-16T15:11:11.723Z,26.10
2018-09-16T15:13:39.151Z,25.90
2018-09-16T15:16:06.570Z,25.70
2018-09-16T15:18:34.046Z,25.70
2018-09-16T15:21:01.521Z,25.40
2018-09-16T15:23:28.898Z,25.30
2018-09-16T15:25:56.242Z,25.30
2018-09-16T15:28:23.701Z,25.20
2018-09-16T15:30:51.173Z,25.10
2018-09-16T15:33:18.693Z,25.00
2018-09-16T15:35:46.042Z,24.90
2018-09-16T15:38:13.468Z,24.90
2018-09-16T15:40:40.936Z,24.80
2018-09-16T15:43:08.475Z,24.80
2018-09-16T15:45:35.879Z,24.70
2018-09-16T15:48:03.303Z,24.60
2018-09-16T15:50:30.748Z,24.50
2018-09-16T15:52:58.155Z,24.40
2018-09-16T15:55:25.656Z,24.30
2018-09-16T15:57:53.194Z,24.30
2018-09-16T16:00:20.642Z,24.30
2018-09-16T16:02:48.019Z,24.20
2018-09-16T16:05:15.387Z,24.10
2018-09-16T16:07:42.834Z,24.10
2018-09-16T16:10:10.268Z,24.10
2018-09-16T16:12:37.759Z,24.00
2018-09-16T16:15:05.554Z,23.90
2018-09-16T16:17:33.026Z,23.90
2018-09-16T16:20:00.439Z,23.70
2018-09-16T16:22:27.861Z,23.60
2018-09-16T16:24:55.291Z,23.50
2018-09-16T16:27:22.756Z,23.50
2018-09-16T16:29:50.247Z,23.40
2018-09-16T16:32:17.693Z,23.30
2018-09-16T16:34:45.082Z,23.30
2018-09-16T16:37:12.632Z,23.20
2018-09-16T16:39:40.088Z,23.20
2018-09-16T16:42:07.512Z,23.10
2018-09-16T16:44:35.173Z,23.10
2018-09-16T16:47:02.580Z,23.00
2018-09-16T16:49:30.114Z,22.90
2018-09-16T16:51:57.471Z,22.90
2018-09-16T16:54:24.908Z,22.70
2018-09-16T16:56:52.406Z,22.60
2018-09-16T16:59:19.852Z,22.50
2018-09-16T17:01:47.322Z,22.40
2018-09-16T17:04:15.516Z,22.30
2018-09-16T17:06:42.986Z,22.10
2018-09-16T17:09:10.433Z,22.00
2018-09-16T17:11:38.206Z,21.90
2018-09-16T17:14:06.781Z,21.80
2018-09-16T17:16:34.224Z,21.70
2018-09-16T17:19:01.857Z,21.60
2018-09-16T17:21:29.352Z,21.50
2018-09-16T17:23:59.270Z,21.40
2018-09-16T17:26:27.313Z,21.20
2018-09-16T17:28:54.746Z,21.10
2018-09-16T17:31:22.100Z,21.00
2018-09-16T17:33:49.572Z,20.90
2018-09-16T17:36:16.978Z,20.80
2018-09-16T17:38:44.411Z,20.70
2018-09-16T17:41:11.859Z,20.60
2018-09-16T17:43:39.275Z,20.50
2018-09-16T17:46:06.678Z,20.40
2018-09-16T17:48:34.127Z,20.40
2018-09-16T17:51:01.547Z,20.30
2018-09-16T17:53:28.945Z,20.20
2018-09-16T17:55:56.399Z,20.00
2018-09-16T17:58:23.943Z,19.90
2018-09-16T18:00:51.456Z,19.90
2018-09-16T18:03:18.813Z,19.80
2018-09-16T18:05:46.265Z,19.70
2018-09-16T18:08:13.674Z,19.70
2018-09-16T18:10:41.069Z,19.60
2018-09-16T18:13:08.573Z,19.50
2018-09-16T18:15:35.945Z,19.40
2018-09-16T18:18:03.486Z,19.30
2018-09-16T18:20:30.942Z,19.10
2018-09-16T18:22:58.461Z,19.10
2018-09-16T18:25:25.895Z,19.00
2018-09-16T18:27:53.489Z,18.90
2018-09-16T18:30:20.851Z,18.90
2018-09-16T18:32:48.516Z,18.80
2018-09-16T18:35:16.028Z,18.90
2018-09-16T18:37:43.504Z,18.80
2018-09-16T18:40:11.069Z,18.60
2018-09-16T18:42:41.695Z,18.60
2018-09-16T18:45:09.443Z,18.50
2018-09-16T18:47:54.481Z,18.40
2018-09-16T18:50:22.875Z,18.40
2018-09-16T18:52:51.887Z,18.40
2018-09-16T18:55:19.415Z,18.30
2018-09-16T18:57:47.080Z,18.20
2018-09-16T19:00:14.615Z,18.20
2018-09-16T19:02:42.033Z,18.10
2018-09-16T19:05:09.431Z,18.00
2018-09-16T19:07:36.813Z,18.00
2018-09-16T19:10:04.282Z,17.90
2018-09-16T19:12:31.789Z,17.80
2018-09-16T19:14:59.238Z,17.80
2018-09-16T19:17:26.715Z,17.80
2018-09-16T19:19:54.309Z,17.80
2018-09-16T19:22:21.654Z,17.70
2018-09-16T19:24:49.103Z,17.60
2018-09-16T19:27:16.558Z,17.50
2018-09-16T19:29:44.023Z,17.40
2018-09-16T19:32:11.515Z,17.40
2018-09-16T19:34:39.213Z,17.30
2018-09-16T19:37:06.664Z,17.40
2018-09-16T19:39:34.026Z,17.40
2018-09-16T19:42:01.441Z,17.30
2018-09-16T19:44:28.888Z,17.20
2018-09-16T19:46:56.344Z,17.20
2018-09-16T19:49:23.789Z,17.20
2018-09-16T19:51:51.264Z,17.10
2018-09-16T19:54:18.812Z,17.10
2018-09-16T19:56:46.201Z,17.00
2018-09-16T19:59:13.757Z,17.00
2018-09-16T20:01:41.228Z,16.90
2018-09-16T20:04:08.722Z,16.90
2018-09-16T20:06:36.175Z,16.90
2018-09-16T20:09:07.390Z,16.90
2018-09-16T20:11:34.790Z,16.90
2018-09-16T20:14:02.289Z,16.80
2018-09-16T20:16:29.745Z,16.80
2018-09-16T20:18:57.165Z,16.70
2018-09-16T20:21:24.535Z,16.60
2018-09-16T20:23:51.912Z,16.60
2018-09-16T20:26:19.378Z,16.40
2018-09-16T20:28:50.630Z,16.30
2018-09-16T20:31:18.022Z,16.30
2018-09-16T20:33:45.665Z,16.20
2018-09-16T20:36:13.601Z,16.30
2018-09-16T20:38:41.605Z,16.30
2018-09-16T20:41:09.156Z,16.30
2018-09-16T20:43:36.641Z,16.30
2018-09-16T20:46:04.166Z,16.30
2018-09-16T20:48:31.715Z,16.20
2018-09-16T20:50:59.267Z,16.20
2018-09-16T20:53:26.723Z,16.20
2018-09-16T20:55:54.339Z,16.10
2018-09-16T20:58:21.918Z,16.10
2018-09-16T21:00:49.316Z,16.10
2018-09-16T21:03:27.240Z,16.10
2018-09-16T21:05:55.184Z,16.10
2018-09-16T21:08:22.566Z,15.90
2018-09-16T21:10:49.999Z,15.90
2018-09-16T21:13:17.783Z,15.90
2018-09-16T21:15:45.558Z,15.90
2018-09-16T21:18:13.088Z,15.90
2018-09-16T21:20:40.593Z,15.80
2018-09-16T21:23:08.013Z,15.70
2018-09-16T21:25:35.603Z,15.70
2018-09-16T21:28:03.920Z,15.70
2018-09-16T21:30:34.244Z,15.60
2018-09-16T21:33:01.662Z,15.60
2018-09-16T21:35:29.084Z,15.50
2018-09-16T21:37:56.598Z,15.50
2018-09-16T21:40:24.042Z,15.40
2018-09-16T21:42:51.476Z,15.40
2018-09-16T21:45:18.912Z,15.40
2018-09-16T21:47:46.538Z,15.40
2018-09-16T21:50:14.659Z,15.40
2018-09-16T21:52:42.126Z,15.40
2018-09-16T21:55:09.600Z,15.40
2018-09-16T21:57:37.057Z,15.30
2018-09-16T22:00:05.722Z,15.30
2018-09-16T22:02:33.157Z,15.20
2018-09-16T22:05:01.483Z,15.20
2018-09-16T22:07:29.248Z,15.10
2018-09-16T22:09:57.652Z,15.20
2018-09-16T22:12:25.167Z,15.20
2018-09-16T22:14:52.578Z,15.10
2018-09-16T22:17:20.066Z,15.20
2018-09-16T22:19:47.409Z,15.10
2018-09-16T22:22:14.810Z,15.10
2018-09-16T22:24:42.254Z,15.10
2018-09-16T22:27:09.666Z,15.10
2018-09-16T22:29:37.062Z,15.00
2018-09-16T22:32:04.438Z,14.90
2018-09-16T22:34:31.830Z,15.00
2018-09-16T22:36:59.206Z,14.90
2018-09-16T22:39:26.565Z,14.90
2018-09-16T22:41:53.969Z,14.80
2018-09-16T22:44:21.362Z,14.80
2018-09-16T22:46:48.907Z,14.70
2018-09-16T22:49:16.320Z,14.60
2018-09-16T22:51:43.736Z,14.60
2018-09-16T22:54:11.105Z,14.50
2018-09-16T22:56:38.745Z,14.40
2018-09-16T22:59:06.311Z,14.40
2018-09-16T23:01:33.752Z,14.40
2018-09-16T23:04:01.107Z,14.30
2018-09-16T23:06:29.405Z,14.30
2018-09-16T23:09:02.591Z,14.30
2018-09-16T23:11:30.455Z,14.20
2018-09-16T23:13:57.851Z,14.20
2018-09-16T23:16:25.302Z,14.20
2018-09-16T23:18:52.792Z,14.20
2018-09-16T23:21:20.301Z,14.20
2018-09-16T23:23:47.699Z,14.20
2018-09-16T23:26:15.361Z,14.10
2018-09-16T23:28:42.989Z,14.10
2018-09-16T23:31:10.422Z,14.10
2018-09-16T23:33:38.251Z,14.10
2018-09-16T23:36:06.117Z,14.10
2018-09-16T23:38:33.901Z,14.10
2018-09-16T23:41:03.211Z,14.00
2018-09-16T23:43:30.563Z,14.10
2018-09-16T23:45:57.926Z,14.10
2018-09-16T23:48:25.235Z,14.00
2018-09-16T23:50:52.702Z,13.90
2018-09-16T23:53:20.041Z,13.90
2018-09-16T23:55:47.485Z,14.00
2018-09-16T23:58:14.819Z,14.00
